sensor_id;sensor_type;location;lat;lon;timestamp;temperature;humidity
22145;DHT22;11238;48.730;11.566;2023-12-20T00:00:36;3.80;99.90
22145;DHT22;11238;48.730;11.566;2023-12-20T00:03:03;3.80;99.90
22145;DHT22;11238;48.730;11.566;2023-12-20T00:05:29;3.90;99.90
22145;DHT22;11238;48.730;11.566;2023-12-20T00:07:57;3.90;99.90
22145;DHT22;11238;48.730;11.566;2023-12-20T00:10:23;3.90;99.90
22145;DHT22;11238;48.730;11.566;2023-12-20T00:12:48;3.90;99.90
22145;DHT22;11238;48.730;11.566;2023-12-20T00:15:14;3.80;99.90
22145;DHT22;11238;48.730;11.566;2023-12-20T00:17:40;3.80;99.90
22145;DHT22;11238;48.730;11.566;2023-12-20T00:20:06;3.80;99.90
22145;DHT22;11238;48.730;11.566;2023-12-20T00:22:32;3.80;99.90
22145;DHT22;11238;48.730;11.566;2023-12-20T00:24:57;3.80;99.90
22145;DHT22;11238;48.730;11.566;2023-12-20T00:27:23;3.80;99.90
22145;DHT22;11238;48.730;11.566;2023-12-20T00:29:49;3.80;99.90
22145;DHT22;11238;48.730;11.566;2023-12-20T00:32:16;3.80;99.90
22145;DHT22;11238;48.730;11.566;2023-12-20T00:34:42;3.80;99.90
22145;DHT22;11238;48.730;11.566;2023-12-20T00:37:08;3.90;99.90
22145;DHT22;11238;48.730;11.566;2023-12-20T00:39:34;3.80;99.90
22145;DHT22;11238;48.730;11.566;2023-12-20T00:41:59;3.90;99.90
22145;DHT22;11238;48.730;11.566;2023-12-20T00:44:25;3.90;99.90
22145;DHT22;11238;48.730;11.566;2023-12-20T00:46:51;4.00;99.90
22145;DHT22;11238;48.730;11.566;2023-12-20T00:49:17;4.00;99.90
22145;DHT22;11238;48.730;11.566;2023-12-20T00:51:43;4.10;99.90
22145;DHT22;11238;48.730;11.566;2023-12-20T00:54:09;4.10;99.90
22145;DHT22;11238;48.730;11.566;2023-12-20T00:56:35;4.20;99.90
22145;DHT22;11238;48.730;11.566;2023-12-20T00:59:00;4.30;99.90
22145;DHT22;11238;48.730;11.566;2023-12-20T01:01:26;4.30;99.90
22145;DHT22;11238;48.730;11.566;2023-12-20T01:03:52;4.30;99.90
22145;DHT22;11238;48.730;11.566;2023-12-20T01:06:18;4.40;99.90
22145;DHT22;11238;48.730;11.566;2023-12-20T01:08:44;4.40;99.90
22145;DHT22;11238;48.730;11.566;2023-12-20T01:11:10;4.40;99.90
22145;DHT22;11238;48.730;11.566;2023-12-20T01:13:36;4.40;99.90
22145;DHT22;11238;48.730;11.566;2023-12-20T01:16:01;4.50;99.90
22145;DHT22;11238;48.730;11.566;2023-12-20T01:18:28;4.50;99.90
22145;DHT22;11238;48.730;11.566;2023-12-20T01:20:53;4.50;99.90
22145;DHT22;11238;48.730;11.566;2023-12-20T01:23:19;4.60;99.90
22145;DHT22;11238;48.730;11.566;2023-12-20T01:25:45;4.50;99.90
22145;DHT22;11238;48.730;11.566;2023-12-20T01:28:10;4.50;99.90
22145;DHT22;11238;48.730;11.566;2023-12-20T01:30:36;4.50;99.90
22145;DHT22;11238;48.730;11.566;2023-12-20T01:33:02;4.50;99.90
22145;DHT22;11238;48.730;11.566;2023-12-20T01:35:27;4.50;99.90
22145;DHT22;11238;48.730;11.566;2023-12-20T01:37:53;4.50;99.90
22145;DHT22;11238;48.730;11.566;2023-12-20T01:40:22;4.50;99.90
22145;DHT22;11238;48.730;11.566;2023-12-20T01:42:58;4.50;99.90
22145;DHT22;11238;48.730;11.566;2023-12-20T01:45:24;4.50;99.90
22145;DHT22;11238;48.730;11.566;2023-12-20T01:47:50;4.50;99.90
22145;DHT22;11238;48.730;11.566;2023-12-20T01:50:16;4.60;99.90
22145;DHT22;11238;48.730;11.566;2023-12-20T01:52:43;4.60;99.90
22145;DHT22;11238;48.730;11.566;2023-12-20T01:55:09;4.60;99.90
22145;DHT22;11238;48.730;11.566;2023-12-20T01:57:42;4.60;99.90
22145;DHT22;11238;48.730;11.566;2023-12-20T02:00:09;4.50;99.90
22145;DHT22;11238;48.730;11.566;2023-12-20T02:02:39;4.50;99.90
22145;DHT22;11238;48.730;11.566;2023-12-20T02:05:08;4.60;99.90
22145;DHT22;11238;48.730;11.566;2023-12-20T02:07:34;4.50;99.90
22145;DHT22;11238;48.730;11.566;2023-12-20T02:10:01;4.50;99.90
22145;DHT22;11238;48.730;11.566;2023-12-20T02:12:27;4.60;99.90
22145;DHT22;11238;48.730;11.566;2023-12-20T02:14:52;4.60;99.90
22145;DHT22;11238;48.730;11.566;2023-12-20T02:17:20;4.60;99.90
22145;DHT22;11238;48.730;11.566;2023-12-20T02:19:45;4.60;99.90
22145;DHT22;11238;48.730;11.566;2023-12-20T02:22:11;4.50;99.90
22145;DHT22;11238;48.730;11.566;2023-12-20T02:24:38;4.40;99.90
22145;DHT22;11238;48.730;11.566;2023-12-20T02:27:05;4.40;99.90
22145;DHT22;11238;48.730;11.566;2023-12-20T02:29:33;4.50;99.90
22145;DHT22;11238;48.730;11.566;2023-12-20T02:31:58;4.40;99.90
22145;DHT22;11238;48.730;11.566;2023-12-20T02:34:24;4.40;99.90
22145;DHT22;11238;48.730;11.566;2023-12-20T02:36:50;4.40;99.90
22145;DHT22;11238;48.730;11.566;2023-12-20T02:39:16;4.30;99.90
22145;DHT22;11238;48.730;11.566;2023-12-20T02:41:42;4.30;99.90
22145;DHT22;11238;48.730;11.566;2023-12-20T02:44:07;4.30;99.90
22145;DHT22;11238;48.730;11.566;2023-12-20T02:46:33;4.40;99.90
22145;DHT22;11238;48.730;11.566;2023-12-20T02:48:59;4.30;99.90
22145;DHT22;11238;48.730;11.566;2023-12-20T02:51:24;4.30;99.90
22145;DHT22;11238;48.730;11.566;2023-12-20T02:53:50;4.40;99.90
22145;DHT22;11238;48.730;11.566;2023-12-20T02:56:16;4.40;99.90
22145;DHT22;11238;48.730;11.566;2023-12-20T02:58:41;4.40;99.90
22145;DHT22;11238;48.730;11.566;2023-12-20T03:01:07;4.50;99.90
22145;DHT22;11238;48.730;11.566;2023-12-20T03:03:32;4.50;99.90
22145;DHT22;11238;48.730;11.566;2023-12-20T03:05:59;4.50;99.90
22145;DHT22;11238;48.730;11.566;2023-12-20T03:08:25;4.70;99.90
22145;DHT22;11238;48.730;11.566;2023-12-20T03:10:50;4.70;99.90
22145;DHT22;11238;48.730;11.566;2023-12-20T03:13:16;4.80;99.90
22145;DHT22;11238;48.730;11.566;2023-12-20T03:15:42;4.90;99.90
22145;DHT22;11238;48.730;11.566;2023-12-20T03:18:07;4.90;99.90
22145;DHT22;11238;48.730;11.566;2023-12-20T03:20:33;4.90;99.90
22145;DHT22;11238;48.730;11.566;2023-12-20T03:23:03;4.90;99.90
22145;DHT22;11238;48.730;11.566;2023-12-20T03:25:29;4.90;99.90
22145;DHT22;11238;48.730;11.566;2023-12-20T03:27:55;4.80;99.90
22145;DHT22;11238;48.730;11.566;2023-12-20T03:30:20;4.80;99.90
22145;DHT22;11238;48.730;11.566;2023-12-20T03:32:47;4.80;99.90
22145;DHT22;11238;48.730;11.566;2023-12-20T03:35:13;4.70;99.90
22145;DHT22;11238;48.730;11.566;2023-12-20T03:37:39;4.70;99.90
22145;DHT22;11238;48.730;11.566;2023-12-20T03:40:05;4.70;99.90
22145;DHT22;11238;48.730;11.566;2023-12-20T03:42:31;4.70;99.90
22145;DHT22;11238;48.730;11.566;2023-12-20T03:44:56;4.60;99.90
22145;DHT22;11238;48.730;11.566;2023-12-20T03:47:22;4.60;99.90
22145;DHT22;11238;48.730;11.566;2023-12-20T03:49:48;4.60;99.90
22145;DHT22;11238;48.730;11.566;2023-12-20T03:52:14;4.60;99.90
22145;DHT22;11238;48.730;11.566;2023-12-20T03:54:40;4.50;99.90
22145;DHT22;11238;48.730;11.566;2023-12-20T03:57:08;4.50;99.90
22145;DHT22;11238;48.730;11.566;2023-12-20T03:59:37;4.60;99.90
22145;DHT22;11238;48.730;11.566;2023-12-20T04:02:04;4.50;99.90
22145;DHT22;11238;48.730;11.566;2023-12-20T04:04:30;4.50;99.90
22145;DHT22;11238;48.730;11.566;2023-12-20T04:06:56;4.50;99.90
22145;DHT22;11238;48.730;11.566;2023-12-20T04:09:22;4.40;99.90
22145;DHT22;11238;48.730;11.566;2023-12-20T04:11:47;4.40;99.90
22145;DHT22;11238;48.730;11.566;2023-12-20T04:14:13;4.40;99.90
22145;DHT22;11238;48.730;11.566;2023-12-20T04:16:39;4.30;99.90
22145;DHT22;11238;48.730;11.566;2023-12-20T04:19:05;4.30;99.90
22145;DHT22;11238;48.730;11.566;2023-12-20T04:21:31;4.30;99.90
22145;DHT22;11238;48.730;11.566;2023-12-20T04:23:57;4.30;99.90
22145;DHT22;11238;48.730;11.566;2023-12-20T04:26:23;4.30;99.90
22145;DHT22;11238;48.730;11.566;2023-12-20T04:28:49;4.20;99.90
22145;DHT22;11238;48.730;11.566;2023-12-20T04:31:15;4.20;99.90
22145;DHT22;11238;48.730;11.566;2023-12-20T04:33:41;4.20;99.90
22145;DHT22;11238;48.730;11.566;2023-12-20T04:36:07;4.20;99.90
22145;DHT22;11238;48.730;11.566;2023-12-20T04:38:34;4.20;99.90
22145;DHT22;11238;48.730;11.566;2023-12-20T04:41:00;4.20;99.90
22145;DHT22;11238;48.730;11.566;2023-12-20T04:43:25;4.20;99.90
22145;DHT22;11238;48.730;11.566;2023-12-20T04:45:51;4.10;99.90
22145;DHT22;11238;48.730;11.566;2023-12-20T04:48:17;4.10;99.90
22145;DHT22;11238;48.730;11.566;2023-12-20T04:50:43;4.10;99.90
22145;DHT22;11238;48.730;11.566;2023-12-20T04:53:09;4.00;99.90
22145;DHT22;11238;48.730;11.566;2023-12-20T04:55:35;4.00;99.90
22145;DHT22;11238;48.730;11.566;2023-12-20T04:58:01;4.00;99.90
22145;DHT22;11238;48.730;11.566;2023-12-20T05:00:26;4.00;99.90
22145;DHT22;11238;48.730;11.566;2023-12-20T05:02:52;4.00;99.90
22145;DHT22;11238;48.730;11.566;2023-12-20T05:05:18;4.00;99.90
22145;DHT22;11238;48.730;11.566;2023-12-20T05:07:44;4.10;99.90
22145;DHT22;11238;48.730;11.566;2023-12-20T05:10:10;4.10;99.90
22145;DHT22;11238;48.730;11.566;2023-12-20T05:12:36;4.10;99.90
22145;DHT22;11238;48.730;11.566;2023-12-20T05:15:01;4.10;99.90
22145;DHT22;11238;48.730;11.566;2023-12-20T05:17:27;4.10;99.90
22145;DHT22;11238;48.730;11.566;2023-12-20T05:19:53;4.00;99.90
22145;DHT22;11238;48.730;11.566;2023-12-20T05:22:19;4.10;99.90
22145;DHT22;11238;48.730;11.566;2023-12-20T05:24:46;4.10;99.90
22145;DHT22;11238;48.730;11.566;2023-12-20T05:27:12;4.00;99.90
22145;DHT22;11238;48.730;11.566;2023-12-20T05:29:38;4.00;99.90
22145;DHT22;11238;48.730;11.566;2023-12-20T05:32:04;4.00;99.90
22145;DHT22;11238;48.730;11.566;2023-12-20T05:34:30;4.00;99.90
22145;DHT22;11238;48.730;11.566;2023-12-20T05:36:58;4.10;99.90
22145;DHT22;11238;48.730;11.566;2023-12-20T05:39:23;4.10;99.90
22145;DHT22;11238;48.730;11.566;2023-12-20T05:41:49;4.10;99.90
22145;DHT22;11238;48.730;11.566;2023-12-20T05:44:15;4.10;99.90
22145;DHT22;11238;48.730;11.566;2023-12-20T05:46:41;4.10;99.90
22145;DHT22;11238;48.730;11.566;2023-12-20T05:49:07;4.20;99.90
22145;DHT22;11238;48.730;11.566;2023-12-20T05:51:32;4.20;99.90
22145;DHT22;11238;48.730;11.566;2023-12-20T05:53:58;4.20;99.90
22145;DHT22;11238;48.730;11.566;2023-12-20T05:56:24;4.30;99.90
22145;DHT22;11238;48.730;11.566;2023-12-20T05:58:50;4.30;99.90
22145;DHT22;11238;48.730;11.566;2023-12-20T06:01:16;4.20;99.90
22145;DHT22;11238;48.730;11.566;2023-12-20T06:03:43;4.30;99.90
22145;DHT22;11238;48.730;11.566;2023-12-20T06:06:09;4.30;99.90
22145;DHT22;11238;48.730;11.566;2023-12-20T06:08:36;4.30;99.90
22145;DHT22;11238;48.730;11.566;2023-12-20T06:11:02;4.30;99.90
22145;DHT22;11238;48.730;11.566;2023-12-20T06:13:28;4.30;99.90
22145;DHT22;11238;48.730;11.566;2023-12-20T06:15:54;4.30;99.90
22145;DHT22;11238;48.730;11.566;2023-12-20T06:18:21;4.30;99.90
22145;DHT22;11238;48.730;11.566;2023-12-20T06:20:47;4.30;99.90
22145;DHT22;11238;48.730;11.566;2023-12-20T06:23:12;4.40;99.90
22145;DHT22;11238;48.730;11.566;2023-12-20T06:25:38;4.40;99.90
22145;DHT22;11238;48.730;11.566;2023-12-20T06:28:04;4.40;99.90
22145;DHT22;11238;48.730;11.566;2023-12-20T06:30:30;4.50;99.90
22145;DHT22;11238;48.730;11.566;2023-12-20T06:32:58;4.40;99.90
22145;DHT22;11238;48.730;11.566;2023-12-20T06:35:24;4.40;99.90
22145;DHT22;11238;48.730;11.566;2023-12-20T06:37:50;4.40;99.90
22145;DHT22;11238;48.730;11.566;2023-12-20T06:40:15;4.40;99.90
22145;DHT22;11238;48.730;11.566;2023-12-20T06:42:41;4.40;99.90
22145;DHT22;11238;48.730;11.566;2023-12-20T06:45:07;4.40;99.90
22145;DHT22;11238;48.730;11.566;2023-12-20T06:47:33;4.40;99.90
22145;DHT22;11238;48.730;11.566;2023-12-20T06:49:59;4.40;99.90
22145;DHT22;11238;48.730;11.566;2023-12-20T06:52:25;4.40;99.90
22145;DHT22;11238;48.730;11.566;2023-12-20T06:54:50;4.50;99.90
22145;DHT22;11238;48.730;11.566;2023-12-20T06:57:16;4.40;99.90
22145;DHT22;11238;48.730;11.566;2023-12-20T06:59:42;4.40;99.90
22145;DHT22;11238;48.730;11.566;2023-12-20T07:02:08;4.40;99.90
22145;DHT22;11238;48.730;11.566;2023-12-20T07:04:38;4.50;99.90
22145;DHT22;11238;48.730;11.566;2023-12-20T07:07:04;4.50;99.90
22145;DHT22;11238;48.730;11.566;2023-12-20T07:09:29;4.50;99.90
22145;DHT22;11238;48.730;11.566;2023-12-20T07:11:55;4.50;99.90
22145;DHT22;11238;48.730;11.566;2023-12-20T07:14:21;4.40;99.90
22145;DHT22;11238;48.730;11.566;2023-12-20T07:16:47;4.50;99.90
22145;DHT22;11238;48.730;11.566;2023-12-20T07:19:12;4.50;99.90
22145;DHT22;11238;48.730;11.566;2023-12-20T07:21:38;4.50;99.90
22145;DHT22;11238;48.730;11.566;2023-12-20T07:24:04;4.50;99.90
22145;DHT22;11238;48.730;11.566;2023-12-20T07:26:29;4.40;99.90
22145;DHT22;11238;48.730;11.566;2023-12-20T07:28:55;4.40;99.90
22145;DHT22;11238;48.730;11.566;2023-12-20T07:31:21;4.50;99.90
22145;DHT22;11238;48.730;11.566;2023-12-20T07:33:47;4.50;99.90
22145;DHT22;11238;48.730;11.566;2023-12-20T07:36:13;4.50;99.90
22145;DHT22;11238;48.730;11.566;2023-12-20T07:38:38;4.50;99.90
22145;DHT22;11238;48.730;11.566;2023-12-20T07:41:05;4.50;99.90
22145;DHT22;11238;48.730;11.566;2023-12-20T07:43:31;4.50;99.90
22145;DHT22;11238;48.730;11.566;2023-12-20T07:45:56;4.50;99.90
22145;DHT22;11238;48.730;11.566;2023-12-20T07:48:22;4.50;99.90
22145;DHT22;11238;48.730;11.566;2023-12-20T07:50:48;4.50;99.90
22145;DHT22;11238;48.730;11.566;2023-12-20T07:53:13;4.50;99.90
22145;DHT22;11238;48.730;11.566;2023-12-20T07:55:39;4.50;99.90
22145;DHT22;11238;48.730;11.566;2023-12-20T07:58:04;4.50;99.90
22145;DHT22;11238;48.730;11.566;2023-12-20T08:00:30;4.60;99.90
22145;DHT22;11238;48.730;11.566;2023-12-20T08:02:56;4.50;99.90
22145;DHT22;11238;48.730;11.566;2023-12-20T08:05:22;4.60;99.90
22145;DHT22;11238;48.730;11.566;2023-12-20T08:07:47;4.60;99.90
22145;DHT22;11238;48.730;11.566;2023-12-20T08:10:13;4.60;99.90
22145;DHT22;11238;48.730;11.566;2023-12-20T08:12:39;4.60;99.90
22145;DHT22;11238;48.730;11.566;2023-12-20T08:15:05;4.60;99.90
22145;DHT22;11238;48.730;11.566;2023-12-20T08:17:31;4.60;99.90
22145;DHT22;11238;48.730;11.566;2023-12-20T08:19:57;4.60;99.90
22145;DHT22;11238;48.730;11.566;2023-12-20T08:22:23;4.60;99.90
22145;DHT22;11238;48.730;11.566;2023-12-20T08:24:48;4.70;99.90
22145;DHT22;11238;48.730;11.566;2023-12-20T08:27:14;4.70;99.90
22145;DHT22;11238;48.730;11.566;2023-12-20T08:29:40;4.70;99.90
22145;DHT22;11238;48.730;11.566;2023-12-20T08:32:05;4.70;99.90
22145;DHT22;11238;48.730;11.566;2023-12-20T08:34:31;4.70;99.90
22145;DHT22;11238;48.730;11.566;2023-12-20T08:36:56;4.70;99.90
22145;DHT22;11238;48.730;11.566;2023-12-20T08:39:22;4.70;99.90
22145;DHT22;11238;48.730;11.566;2023-12-20T08:41:48;4.70;99.90
22145;DHT22;11238;48.730;11.566;2023-12-20T08:44:13;4.70;99.90
22145;DHT22;11238;48.730;11.566;2023-12-20T08:46:39;4.70;99.90
22145;DHT22;11238;48.730;11.566;2023-12-20T08:49:05;4.70;99.90
22145;DHT22;11238;48.730;11.566;2023-12-20T08:51:31;4.70;99.90
22145;DHT22;11238;48.730;11.566;2023-12-20T08:53:56;4.70;99.90
22145;DHT22;11238;48.730;11.566;2023-12-20T08:56:22;4.80;99.90
22145;DHT22;11238;48.730;11.566;2023-12-20T08:58:47;4.70;99.90
22145;DHT22;11238;48.730;11.566;2023-12-20T09:01:14;4.80;99.90
22145;DHT22;11238;48.730;11.566;2023-12-20T09:03:40;4.80;99.90
22145;DHT22;11238;48.730;11.566;2023-12-20T09:06:06;4.80;99.90
22145;DHT22;11238;48.730;11.566;2023-12-20T09:08:31;4.80;99.90
22145;DHT22;11238;48.730;11.566;2023-12-20T09:10:57;4.80;99.90
22145;DHT22;11238;48.730;11.566;2023-12-20T09:13:23;4.90;99.90
22145;DHT22;11238;48.730;11.566;2023-12-20T09:15:56;4.90;99.90
22145;DHT22;11238;48.730;11.566;2023-12-20T09:18:22;4.90;99.90
22145;DHT22;11238;48.730;11.566;2023-12-20T09:20:48;4.90;99.90
22145;DHT22;11238;48.730;11.566;2023-12-20T09:23:14;4.90;99.90
22145;DHT22;11238;48.730;11.566;2023-12-20T09:25:39;5.00;99.90
22145;DHT22;11238;48.730;11.566;2023-12-20T09:28:05;5.00;99.90
22145;DHT22;11238;48.730;11.566;2023-12-20T09:30:31;5.10;99.90
22145;DHT22;11238;48.730;11.566;2023-12-20T09:32:57;5.10;99.90
22145;DHT22;11238;48.730;11.566;2023-12-20T09:35:23;5.20;99.90
22145;DHT22;11238;48.730;11.566;2023-12-20T09:37:49;5.20;99.90
22145;DHT22;11238;48.730;11.566;2023-12-20T09:40:18;5.20;99.90
22145;DHT22;11238;48.730;11.566;2023-12-20T09:43:20;5.20;99.90
22145;DHT22;11238;48.730;11.566;2023-12-20T09:45:48;5.30;99.90
22145;DHT22;11238;48.730;11.566;2023-12-20T09:48:18;5.30;99.90
22145;DHT22;11238;48.730;11.566;2023-12-20T09:50:44;5.30;99.90
22145;DHT22;11238;48.730;11.566;2023-12-20T09:53:14;5.30;99.90
22145;DHT22;11238;48.730;11.566;2023-12-20T09:55:41;5.30;99.90
22145;DHT22;11238;48.730;11.566;2023-12-20T09:58:07;5.30;99.90
22145;DHT22;11238;48.730;11.566;2023-12-20T10:00:35;5.30;99.90
22145;DHT22;11238;48.730;11.566;2023-12-20T10:03:01;5.30;99.90
22145;DHT22;11238;48.730;11.566;2023-12-20T10:05:31;5.30;99.90
22145;DHT22;11238;48.730;11.566;2023-12-20T10:07:58;5.40;99.90
22145;DHT22;11238;48.730;11.566;2023-12-20T10:10:24;5.40;99.90
22145;DHT22;11238;48.730;11.566;2023-12-20T10:13:07;5.50;99.90
22145;DHT22;11238;48.730;11.566;2023-12-20T10:15:34;5.60;99.90
22145;DHT22;11238;48.730;11.566;2023-12-20T10:18:03;5.70;99.90
22145;DHT22;11238;48.730;11.566;2023-12-20T10:20:30;5.70;99.90
22145;DHT22;11238;48.730;11.566;2023-12-20T10:22:57;5.70;99.90
22145;DHT22;11238;48.730;11.566;2023-12-20T10:25:23;5.70;99.90
22145;DHT22;11238;48.730;11.566;2023-12-20T10:27:50;5.70;99.90
22145;DHT22;11238;48.730;11.566;2023-12-20T10:30:33;5.70;99.90
22145;DHT22;11238;48.730;11.566;2023-12-20T10:32:59;5.70;99.90
22145;DHT22;11238;48.730;11.566;2023-12-20T10:35:25;5.70;99.90
22145;DHT22;11238;48.730;11.566;2023-12-20T10:37:55;5.70;99.90
22145;DHT22;11238;48.730;11.566;2023-12-20T10:40:22;5.70;99.90
22145;DHT22;11238;48.730;11.566;2023-12-20T10:42:49;5.70;99.90
22145;DHT22;11238;48.730;11.566;2023-12-20T10:45:15;5.60;99.90
22145;DHT22;11238;48.730;11.566;2023-12-20T10:47:44;5.60;99.90
22145;DHT22;11238;48.730;11.566;2023-12-20T10:50:11;5.50;99.90
22145;DHT22;11238;48.730;11.566;2023-12-20T10:52:37;5.50;99.90
22145;DHT22;11238;48.730;11.566;2023-12-20T10:55:04;5.50;99.90
22145;DHT22;11238;48.730;11.566;2023-12-20T10:57:30;5.50;99.90
22145;DHT22;11238;48.730;11.566;2023-12-20T11:00:01;5.40;99.90
22145;DHT22;11238;48.730;11.566;2023-12-20T11:02:32;5.40;99.90
22145;DHT22;11238;48.730;11.566;2023-12-20T11:08:03;5.40;99.90
22145;DHT22;11238;48.730;11.566;2023-12-20T11:10:59;5.40;99.90
22145;DHT22;11238;48.730;11.566;2023-12-20T11:13:36;5.50;99.90
22145;DHT22;11238;48.730;11.566;2023-12-20T11:16:03;5.60;99.90
22145;DHT22;11238;48.730;11.566;2023-12-20T11:18:30;5.90;99.90
22145;DHT22;11238;48.730;11.566;2023-12-20T11:21:02;6.20;99.90
22145;DHT22;11238;48.730;11.566;2023-12-20T11:23:30;6.40;99.90
22145;DHT22;11238;48.730;11.566;2023-12-20T11:25:58;6.60;99.90
22145;DHT22;11238;48.730;11.566;2023-12-20T11:28:25;6.80;99.90
22145;DHT22;11238;48.730;11.566;2023-12-20T11:30:53;6.90;99.90
22145;DHT22;11238;48.730;11.566;2023-12-20T11:33:27;6.90;99.90
22145;DHT22;11238;48.730;11.566;2023-12-20T11:35:59;7.00;99.90
22145;DHT22;11238;48.730;11.566;2023-12-20T11:38:36;7.00;99.90
22145;DHT22;11238;48.730;11.566;2023-12-20T11:41:06;7.00;99.90
22145;DHT22;11238;48.730;11.566;2023-12-20T11:43:38;7.10;99.90
22145;DHT22;11238;48.730;11.566;2023-12-20T11:46:05;7.20;99.90
22145;DHT22;11238;48.730;11.566;2023-12-20T11:48:32;7.30;99.90
22145;DHT22;11238;48.730;11.566;2023-12-20T11:50:58;7.10;99.90
22145;DHT22;11238;48.730;11.566;2023-12-20T11:53:24;6.90;99.90
22145;DHT22;11238;48.730;11.566;2023-12-20T11:55:50;6.70;99.90
22145;DHT22;11238;48.730;11.566;2023-12-20T11:58:16;6.50;99.90
22145;DHT22;11238;48.730;11.566;2023-12-20T12:00:42;6.40;99.90
22145;DHT22;11238;48.730;11.566;2023-12-20T12:03:09;6.30;99.90
22145;DHT22;11238;48.730;11.566;2023-12-20T12:05:35;6.20;99.90
22145;DHT22;11238;48.730;11.566;2023-12-20T12:08:02;6.10;99.90
22145;DHT22;11238;48.730;11.566;2023-12-20T12:10:29;6.10;99.90
22145;DHT22;11238;48.730;11.566;2023-12-20T12:12:54;6.10;99.90
22145;DHT22;11238;48.730;11.566;2023-12-20T12:15:21;6.10;99.90
22145;DHT22;11238;48.730;11.566;2023-12-20T12:17:53;6.10;99.90
22145;DHT22;11238;48.730;11.566;2023-12-20T12:20:20;6.20;99.90
22145;DHT22;11238;48.730;11.566;2023-12-20T12:22:46;6.10;99.90
22145;DHT22;11238;48.730;11.566;2023-12-20T12:25:16;6.00;99.90
22145;DHT22;11238;48.730;11.566;2023-12-20T12:27:43;5.90;99.90
22145;DHT22;11238;48.730;11.566;2023-12-20T12:30:09;5.70;99.90
22145;DHT22;11238;48.730;11.566;2023-12-20T12:32:36;5.70;99.90
22145;DHT22;11238;48.730;11.566;2023-12-20T12:35:05;5.70;99.90
22145;DHT22;11238;48.730;11.566;2023-12-20T12:37:35;5.70;99.90
22145;DHT22;11238;48.730;11.566;2023-12-20T12:40:04;5.60;99.90
22145;DHT22;11238;48.730;11.566;2023-12-20T12:42:30;5.60;99.90
22145;DHT22;11238;48.730;11.566;2023-12-20T12:44:56;5.60;99.90
22145;DHT22;11238;48.730;11.566;2023-12-20T12:47:22;5.60;99.90
22145;DHT22;11238;48.730;11.566;2023-12-20T12:49:49;5.60;99.90
22145;DHT22;11238;48.730;11.566;2023-12-20T12:52:16;5.70;99.90
22145;DHT22;11238;48.730;11.566;2023-12-20T12:54:42;5.70;99.90
22145;DHT22;11238;48.730;11.566;2023-12-20T12:57:08;5.70;99.90
22145;DHT22;11238;48.730;11.566;2023-12-20T12:59:33;5.80;99.90
22145;DHT22;11238;48.730;11.566;2023-12-20T13:02:00;5.90;99.90
22145;DHT22;11238;48.730;11.566;2023-12-20T13:04:25;5.90;99.90
22145;DHT22;11238;48.730;11.566;2023-12-20T13:06:51;5.90;99.90
22145;DHT22;11238;48.730;11.566;2023-12-20T13:09:17;5.90;99.90
22145;DHT22;11238;48.730;11.566;2023-12-20T13:11:44;5.80;99.90
22145;DHT22;11238;48.730;11.566;2023-12-20T13:14:10;5.80;99.90
22145;DHT22;11238;48.730;11.566;2023-12-20T13:16:41;5.80;99.90
22145;DHT22;11238;48.730;11.566;2023-12-20T13:19:07;5.80;99.90
22145;DHT22;11238;48.730;11.566;2023-12-20T13:21:33;5.80;99.90
22145;DHT22;11238;48.730;11.566;2023-12-20T13:23:58;5.80;99.90
22145;DHT22;11238;48.730;11.566;2023-12-20T13:26:24;5.80;99.90
22145;DHT22;11238;48.730;11.566;2023-12-20T13:28:50;5.80;99.90
22145;DHT22;11238;48.730;11.566;2023-12-20T13:31:16;5.80;99.90
22145;DHT22;11238;48.730;11.566;2023-12-20T13:33:41;5.80;99.90
22145;DHT22;11238;48.730;11.566;2023-12-20T13:36:07;5.80;99.90
22145;DHT22;11238;48.730;11.566;2023-12-20T13:38:33;5.80;99.90
22145;DHT22;11238;48.730;11.566;2023-12-20T13:40:59;5.70;99.90
22145;DHT22;11238;48.730;11.566;2023-12-20T13:43:24;5.70;99.90
22145;DHT22;11238;48.730;11.566;2023-12-20T13:45:50;5.60;99.90
22145;DHT22;11238;48.730;11.566;2023-12-20T13:48:16;5.70;99.90
22145;DHT22;11238;48.730;11.566;2023-12-20T13:50:42;5.60;99.90
22145;DHT22;11238;48.730;11.566;2023-12-20T13:53:08;5.60;99.90
22145;DHT22;11238;48.730;11.566;2023-12-20T13:55:33;5.60;99.90
22145;DHT22;11238;48.730;11.566;2023-12-20T13:57:59;5.60;99.90
22145;DHT22;11238;48.730;11.566;2023-12-20T14:00:24;5.60;99.90
22145;DHT22;11238;48.730;11.566;2023-12-20T14:02:50;5.60;99.90
22145;DHT22;11238;48.730;11.566;2023-12-20T14:05:17;5.60;99.90
22145;DHT22;11238;48.730;11.566;2023-12-20T14:07:45;5.60;99.90
22145;DHT22;11238;48.730;11.566;2023-12-20T14:10:12;5.60;99.90
22145;DHT22;11238;48.730;11.566;2023-12-20T14:12:39;5.50;99.90
22145;DHT22;11238;48.730;11.566;2023-12-20T14:15:05;5.50;99.90
22145;DHT22;11238;48.730;11.566;2023-12-20T14:17:37;5.40;99.90
22145;DHT22;11238;48.730;11.566;2023-12-20T14:20:04;5.40;99.90
22145;DHT22;11238;48.730;11.566;2023-12-20T14:22:30;5.40;99.90
22145;DHT22;11238;48.730;11.566;2023-12-20T14:24:56;5.40;99.90
22145;DHT22;11238;48.730;11.566;2023-12-20T14:27:22;5.40;99.90
22145;DHT22;11238;48.730;11.566;2023-12-20T14:29:50;5.40;99.90
22145;DHT22;11238;48.730;11.566;2023-12-20T14:32:15;5.30;99.90
22145;DHT22;11238;48.730;11.566;2023-12-20T14:34:41;5.40;99.90
22145;DHT22;11238;48.730;11.566;2023-12-20T14:37:07;5.30;99.90
22145;DHT22;11238;48.730;11.566;2023-12-20T14:39:33;5.30;99.90
22145;DHT22;11238;48.730;11.566;2023-12-20T14:41:58;5.30;99.90
22145;DHT22;11238;48.730;11.566;2023-12-20T14:44:24;5.30;99.90
22145;DHT22;11238;48.730;11.566;2023-12-20T14:46:51;5.30;99.90
22145;DHT22;11238;48.730;11.566;2023-12-20T14:49:17;5.20;99.90
22145;DHT22;11238;48.730;11.566;2023-12-20T14:51:46;5.30;99.90
22145;DHT22;11238;48.730;11.566;2023-12-20T14:54:13;5.20;99.90
22145;DHT22;11238;48.730;11.566;2023-12-20T14:56:40;5.20;99.90
22145;DHT22;11238;48.730;11.566;2023-12-20T14:59:06;5.20;99.90
22145;DHT22;11238;48.730;11.566;2023-12-20T15:01:31;5.10;99.90
22145;DHT22;11238;48.730;11.566;2023-12-20T15:03:57;5.10;99.90
22145;DHT22;11238;48.730;11.566;2023-12-20T15:06:23;5.10;99.90
22145;DHT22;11238;48.730;11.566;2023-12-20T15:08:51;5.10;99.90
22145;DHT22;11238;48.730;11.566;2023-12-20T15:11:17;5.10;99.90
22145;DHT22;11238;48.730;11.566;2023-12-20T15:13:43;5.10;99.90
22145;DHT22;11238;48.730;11.566;2023-12-20T15:16:10;5.10;99.90
22145;DHT22;11238;48.730;11.566;2023-12-20T15:18:36;5.00;99.90
22145;DHT22;11238;48.730;11.566;2023-12-20T15:21:02;5.00;99.90
22145;DHT22;11238;48.730;11.566;2023-12-20T15:23:28;5.00;99.90
22145;DHT22;11238;48.730;11.566;2023-12-20T15:25:56;5.00;99.90
22145;DHT22;11238;48.730;11.566;2023-12-20T15:28:22;4.90;99.90